Timeline UpdatesTrip UpdatesNews PostsPvt Posts♥♥Travel TipsAdmin PostsConv PostsFollowed PostsChat RequestsBlog PostsPNR Posts

Disclaimer
Search
 
 
Sun Dec 21, 2014 06:40:49 ISTHomeTrainsΣChainsAtlasPNRForumGalleryNewsFAQTripsMembersLoginFeedback
No Recent News for this Train
Other Trains in the News **new
Latest...
South Western Railway has augmented Bangalore City-Hubli Jan Shatabdi Express with two additional AC second class chair cars temporarily, with effect from January 1 June 30, 2014. The revised composition of Jan Shatabdi Express has total 14 coaches (instead of 12), comprising Two AC second class chair cars, 10 second class chair cars an d two general second class coaches-cum-brake vans.
Sun Jan 05, 2014 (08:41PM)
⇐ Return Journey: Train# 12080

12079/Bangalore City-Hubli Jan Shatabdi Express

Time-Table HAS CHANGED.
Sep 02 2014 (12:00AM)
Change Departure Station:
Change Arrival Station:
Post a Train Travel TipPost a Train Travel Tip **new
Post a Comment/Question/Picture/VideoPost a Comment/Question/Picture/Video
Inaugural Run
Sun Nov 24, 2002
Pantry/Catering
✕ NO Pantry Car
✓ Catering Avbl
RSA - Rake Sharing
Rake/Coach Composition
Loco-SL1-C1-C2-D1-D2-D3-D4-D5-D6-D7-D8-D9-SL2
Loco
KJM WDM-3A/WDG-3A
News    PNR    Forum    Time-Table    Availability    Fare Chart    Map    Arr/Dep History    Trips    Gallery    ΣChains    X/O    Timeline    
Travel Time: 6h 20m    7 halts    Distance: 400 km    Avg Speed: 63 km/hr
Type: Jan Shatabdi
Zone: SWR/South Western
Departs @ 07:05 (Avg 9m late)
Platform# 3
SMTWTFS
Tumkur/TK 
Arrives @ 13:25 (Avg 3m late)
Platform# 1
SMTWTFS
Hubli Junction/UBL 

7 halts. 51 intermediate Stations between Tumkur and Hubli Junction

Hide intermediate Stations  Show Old Time-Table

#TrkCodeStation NameX/OArrivesAvgDepartsAvgHaltPFDay#KmSpeedElevZoneAddress
1/==/SBCBangalore City Junction (10)-06:00+081-69.542903mSWRBengaluru-560023, Karnataka
1.1/==/MWMMalleswaram (2)  06:04-06:04-  1-66.7 42916mSWRBengaluru, Karnataka
2/==%YPRYesvantpur Junction (6)O06:08+406:10+52m21-63.972919mSWRBengaluru 560022, Karnataka
2.1|==/BAWChikbanavar Junction (5)  06:17-06:17-  1-55.9 72881mSWRNMGA, Karnataka
2.2|==/SDVLSoldevanahalli (3)X  06:19-06:19-  1-53.3 72865mSWRBengaluru, Karnataka
2.3|==|GHLGolhalli (3)  06:27-06:27-  1-43.2 72899mSWRState Highway 74, Karnataka
2.4|==|BNKHBhairanayakanahalli (2)  06:33-06:33-  1-36.6 72903mSWRState Highway 74, Karnataka
2.5|==|DBLDodbele  06:36-06:36-  1-32.2 72907mSWRNational Highway 4, Karnataka
2.6|==|MDLLMuddalingana Halli (2)  06:41-06:41-  1-26.4 72891mSWRNH 207, Karnataka
2.7|==|NDVNidvanda (3)  06:44-06:44-  1-22.7 72912mSWRNH 207, Karnataka
2.8|==|DBSDobbspet (2)X  06:47-06:47-  1-19.5 72917mSWRTumkur Dist., Karnataka
2.9|==|HHLHirehali  06:54-06:54-  1-11.3 72848mSWRNH 4, Karnataka
2.10|==|KIATKyatsandra (4)  06:59-06:59-  1-5.2 72841mSWRTumkur, Karnataka
3|==|TKTumkur (3)»X  07:03+807:05+92m310.068823mSWRTumkur, Karnataka
3.1|--|HEIHeggere Halt (1)  07:10-07:10-  16.2 68804mSWRHeggere, Karnataka
3.2|--|MLSAMallasandra (2)  07:14-07:14-  19.8 68802mSWRTumkur., Karnataka
3.3|--|GBBGubbi (1)  07:21-07:21-  118.1 68780mSWRGubbi, Karnataka
3.4|--|NTRNittur (1)  07:29-07:29-  127.4 68789mSWRNH 206, Karnataka
3.5|--|SPGRSampige Road (2)  07:39-07:39-  138.5 68831mSWRTumkur, Karnataka
3.6|--|AMSAAmmasandra (1)X  07:44-07:44-  144.3 68858mSWRTumkur Dist., Karnataka
3.7|--|BSNBanasandra (1)  07:49-07:49-  150.0 68851mSWRTumkur Dist., Karnataka
3.8|--|ARGPAralaguppe  07:53-07:53-  154.9 68843mSWRState Highway 74, Karnataka
3.9|--|RDIKardi  07:58-07:58-  160.2 68843mSWRKaradi Cross, Karnataka
3.10|--|BNKBanashankari Halt  08:03-08:03-  165.6 68849mSWRNational Highway 206, Karnataka
3.11|--|TTRTiptur (4)  08:08-08:08-  171.0 68860mSWRTiptur, Karnataka
3.12|--|SSNHSree Saradanagar Hal (1)X  08:10-08:10-  173.3 68876mSWRTiptur, Karnataka
3.13|--|HVLHonnavalli Road (3)  08:16-08:16-  180.7 68888mSWRNational Highway 206, Karnataka
3.14|--|ADHLAdihalli (1)  08:20-08:20-  185.4 68870mSWRNational Highway 206, Karnataka
4|--|ASKArsikere Junction (3)X  08:30+1408:35+155m1196.571816mSWRArsikere, Karnataka
4.1|==|BVRBanavar (2)  08:48-08:48-  1112.1 71790mSWRNH 73, Karnataka
4.2|==|VNRDevanur (2)  08:54-08:54-  1119.2 71757mSWRDevanur Railway Station, Karnataka
4.3|==|BLKRBallekere HaltX  09:03-09:03-  1129.2 71780mSWRNational Highway 206, Karnataka
4.4|==|DRUKadur Junction (3)X  09:08-09:08-  1135.6 71774mSWRKadur, Karnataka
5|==|RRBBirur Junction (3)  09:13+1609:15+162m21141.670802mSWRBirur, Karnataka
5.1|==|NVFNagavangala  09:24-09:24-  1151.9 70809mSWRMelanahalli Rd, Karnataka
5.2|==|AJPAjjampur (2)X  09:31-09:31-  1159.6 70752mSWRAjjampur, Karnataka
5.3|==!SHVShivani  09:40-09:40-  1170.4 70779mSWRShivani Rd, Karnataka
5.4!==!HSDHosdurga Road (1)  09:48-09:48-  1180.4 70765mSWRChitradurga Dist., Karnataka
5.5!==!ABGTArbagatta Halt  09:52-09:52-  1184.2 70735mSWRState Highway 47, Karnataka
5.6!==!RGIRamgiri  09:58-09:58-  1191.4 70705mSWRShivani Rd, Karnataka
5.7!==!NLNRNulemuruX  10:02-10:02-  1196.9 70678mSWRR.Nulenur, Karnataka
5.8!==!HLKHolalkere  10:06-10:06-  1200.4 70661mSWRNational Highway 13, Karnataka
6!=-|JRUChikjajur Junction (3)  10:14+2010:15+201m11210.377677mSWRChikkajajur, Karnataka
6.1|--|SLUSasalu  10:23-10:23-  1220.1 77660mSWRState Highway 47, Karnataka
6.2|--|MYKMayakonda (2)  10:29-10:29-  1228.1 77646mSWRState Highway 47, Karnataka
6.3|--|KAGKodaganur  10:35-10:35-  1236.3 77633mSWRState Highway 47, Karnataka
6.4|--|HNHHanumanahalli  10:39-10:39-  1241.1 77621mSWRHiretogaleri, Karnataka
6.5|--|THNTolahunse (2)X  10:44-10:44-  1247.1 77614mSWRTholahunase, Karnataka
7|--|DVGDavangere (2)  10:50 10:51+1910:53+203 2m11256.551598mSWRDavanagere, Karnataka
7.1|--|AVCAmaravathi Colony Junction (3)  11:02-11:02-  1264.4 51564mSWRDavangere, Karnataka
8|--|HRRHarihar (3)O  11:08+1911:10+202m21269.374553mSWRHarihar, Karnataka
8.1|--|CLIChalgeri (2)  11:18-11:18-  1279.2 74574mSWRChalageri, Karnataka
9|--|RNRRanibennur (3)X  11:31 11:29+1911:32 11:30+201m21292.781583mSWRRanebennur, Karnataka
9.1|--|DADDevargudda (2)  11:36-11:36-  1300.9 81589mSWRDevaragudda, Karnataka
9.2|--|BYDByadgi (2)  11:44-11:44-  1311.1 81632mSWRNational Highway 4, Karnataka
10|--|HVRHaveri (3)  11:59 11:54+3212:00 11:55+331m21325.250558mSWRHaveri, Karnataka
10.1|--|KJGKarajgi (2)  12:04-12:04-  1332.4 50550mSWRhaveri, Karnataka
10.2|--|KVSKalsur  12:09-12:09-  1336.9 50541mSWRNH 48, Karnataka
10.3|--|SVNRSavanur (2)  12:19-12:19-  1345.1 50584mSWRState Highway 6, Karnataka
10.4|--|YLGYalvigi (2)  12:29-12:29-  1353.6 50621mSWRYalvigi, Karnataka
10.5|--|KALSKalas Halt  12:36-12:36-  1359.7 50663mSWRState Highway 6, Karnataka
10.6|--|GDIGudgeri (2)  12:43-12:43-  1365.1 50689mSWRGudgeri, Karnataka
10.7|--|SNHSaunshi (2)X  12:56-12:56-  1376.3 50634mSWRSaunshi, Karnataka
10.8|--|KNOKundgol (2)  13:06-13:06-  1384.6 50636mSWRKundgol, Karnataka
10.9|--|SUBLHubli South  13:21-13:21-  1396.7 50636mSWRHubli-Dharwad, Karnataka
11|--|UBLHubli Junction (5)•  13:25+3-11400.4-640mSWRHubli - 580020, Karnataka
Scroll to Top
Scroll to Bottom


Go to Mobile site